sensor_id;sensor_type;location;lat;lon;timestamp;P1;durP1;ratioP1;P2;durP2;ratioP2
38222;SDS011;24024;51.186;6.458;2024-03-17T00:01:55;24.67;;;10.23;;
38222;SDS011;24024;51.186;6.458;2024-03-17T00:04:21;21.80;;;9.30;;
38222;SDS011;24024;51.186;6.458;2024-03-17T00:06:47;25.63;;;10.25;;
38222;SDS011;24024;51.186;6.458;2024-03-17T00:09:12;19.17;;;9.32;;
38222;SDS011;24024;51.186;6.458;2024-03-17T00:11:41;22.27;;;10.18;;
38222;SDS011;24024;51.186;6.458;2024-03-17T00:14:09;20.13;;;8.40;;
38222;SDS011;24024;51.186;6.458;2024-03-17T00:16:37;23.10;;;9.23;;
38222;SDS011;24024;51.186;6.458;2024-03-17T00:19:04;19.48;;;9.88;;
38222;SDS011;24024;51.186;6.458;2024-03-17T00:21:33;20.85;;;9.52;;
38222;SDS011;24024;51.186;6.458;2024-03-17T00:23:59;16.80;;;9.48;;
38222;SDS011;24024;51.186;6.458;2024-03-17T00:26:25;16.90;;;8.82;;
38222;SDS011;24024;51.186;6.458;2024-03-17T00:28:56;18.45;;;8.40;;
38222;SDS011;24024;51.186;6.458;2024-03-17T00:31:22;18.80;;;8.70;;
38222;SDS011;24024;51.186;6.458;2024-03-17T00:33:51;21.55;;;8.60;;
38222;SDS011;24024;51.186;6.458;2024-03-17T00:36:17;13.82;;;7.30;;
38222;SDS011;24024;51.186;6.458;2024-03-17T00:38:43;25.17;;;8.43;;
38222;SDS011;24024;51.186;6.458;2024-03-17T00:41:11;17.00;;;7.53;;
38222;SDS011;24024;51.186;6.458;2024-03-17T00:43:39;14.63;;;7.47;;
38222;SDS011;24024;51.186;6.458;2024-03-17T00:46:05;16.30;;;7.53;;
38222;SDS011;24024;51.186;6.458;2024-03-17T00:48:33;21.85;;;8.40;;
38222;SDS011;24024;51.186;6.458;2024-03-17T00:51:02;19.45;;;8.05;;
38222;SDS011;24024;51.186;6.458;2024-03-17T00:53:31;16.13;;;7.30;;
38222;SDS011;24024;51.186;6.458;2024-03-17T00:55:59;16.13;;;7.72;;
38222;SDS011;24024;51.186;6.458;2024-03-17T00:58:28;15.55;;;7.80;;
38222;SDS011;24024;51.186;6.458;2024-03-17T01:00:54;17.92;;;7.65;;
38222;SDS011;24024;51.186;6.458;2024-03-17T01:03:22;19.48;;;8.10;;
38222;SDS011;24024;51.186;6.458;2024-03-17T01:05:47;18.83;;;8.32;;
38222;SDS011;24024;51.186;6.458;2024-03-17T01:08:15;18.42;;;7.88;;
38222;SDS011;24024;51.186;6.458;2024-03-17T01:10:42;16.77;;;8.77;;
38222;SDS011;24024;51.186;6.458;2024-03-17T01:13:11;16.35;;;8.25;;
38222;SDS011;24024;51.186;6.458;2024-03-17T01:15:37;19.75;;;8.98;;
38222;SDS011;24024;51.186;6.458;2024-03-17T01:18:07;14.48;;;8.07;;
38222;SDS011;24024;51.186;6.458;2024-03-17T01:20:36;19.02;;;7.93;;
38222;SDS011;24024;51.186;6.458;2024-03-17T01:23:05;16.67;;;7.55;;
38222;SDS011;24024;51.186;6.458;2024-03-17T01:25:35;18.85;;;7.03;;
38222;SDS011;24024;51.186;6.458;2024-03-17T01:28:03;19.63;;;8.27;;
38222;SDS011;24024;51.186;6.458;2024-03-17T01:30:29;16.50;;;6.82;;
38222;SDS011;24024;51.186;6.458;2024-03-17T01:32:58;13.00;;;7.10;;
38222;SDS011;24024;51.186;6.458;2024-03-17T01:35:25;17.00;;;6.90;;
38222;SDS011;24024;51.186;6.458;2024-03-17T01:37:51;20.55;;;7.88;;
38222;SDS011;24024;51.186;6.458;2024-03-17T01:40:17;13.25;;;6.88;;
38222;SDS011;24024;51.186;6.458;2024-03-17T01:42:43;18.55;;;7.63;;
38222;SDS011;24024;51.186;6.458;2024-03-17T01:45:20;21.90;;;7.70;;
38222;SDS011;24024;51.186;6.458;2024-03-17T01:47:53;14.07;;;6.63;;
38222;SDS011;24024;51.186;6.458;2024-03-17T01:50:23;17.13;;;7.78;;
38222;SDS011;24024;51.186;6.458;2024-03-17T01:52:52;16.98;;;8.05;;
38222;SDS011;24024;51.186;6.458;2024-03-17T01:55:20;19.38;;;7.90;;
38222;SDS011;24024;51.186;6.458;2024-03-17T01:57:49;19.83;;;8.00;;
38222;SDS011;24024;51.186;6.458;2024-03-17T02:00:16;19.20;;;9.32;;
38222;SDS011;24024;51.186;6.458;2024-03-17T02:02:42;17.88;;;8.07;;
38222;SDS011;24024;51.186;6.458;2024-03-17T02:05:08;17.17;;;8.65;;
38222;SDS011;24024;51.186;6.458;2024-03-17T02:07:35;18.50;;;7.95;;
38222;SDS011;24024;51.186;6.458;2024-03-17T02:10:01;16.02;;;7.55;;
38222;SDS011;24024;51.186;6.458;2024-03-17T02:12:30;19.27;;;7.65;;
38222;SDS011;24024;51.186;6.458;2024-03-17T02:15:00;21.17;;;7.95;;
38222;SDS011;24024;51.186;6.458;2024-03-17T02:17:26;18.60;;;7.90;;
38222;SDS011;24024;51.186;6.458;2024-03-17T02:19:54;19.05;;;8.35;;
38222;SDS011;24024;51.186;6.458;2024-03-17T02:22:20;14.93;;;7.22;;
38222;SDS011;24024;51.186;6.458;2024-03-17T02:24:48;13.70;;;7.18;;
38222;SDS011;24024;51.186;6.458;2024-03-17T02:27:14;18.92;;;8.52;;
38222;SDS011;24024;51.186;6.458;2024-03-17T02:29:42;14.85;;;7.60;;
38222;SDS011;24024;51.186;6.458;2024-03-17T02:32:09;17.60;;;6.97;;
38222;SDS011;24024;51.186;6.458;2024-03-17T02:34:35;16.25;;;7.80;;
38222;SDS011;24024;51.186;6.458;2024-03-17T02:37:01;15.30;;;7.60;;
38222;SDS011;24024;51.186;6.458;2024-03-17T02:39:34;14.70;;;7.32;;
38222;SDS011;24024;51.186;6.458;2024-03-17T02:42:04;16.25;;;7.35;;
38222;SDS011;24024;51.186;6.458;2024-03-17T02:44:31;15.82;;;7.80;;
38222;SDS011;24024;51.186;6.458;2024-03-17T02:47:01;19.20;;;7.63;;
38222;SDS011;24024;51.186;6.458;2024-03-17T02:49:33;17.15;;;7.28;;
38222;SDS011;24024;51.186;6.458;2024-03-17T02:52:04;16.25;;;8.25;;
38222;SDS011;24024;51.186;6.458;2024-03-17T02:54:37;14.85;;;8.13;;
38222;SDS011;24024;51.186;6.458;2024-03-17T02:57:03;12.95;;;7.55;;
38222;SDS011;24024;51.186;6.458;2024-03-17T02:59:30;13.82;;;8.48;;
38222;SDS011;24024;51.186;6.458;2024-03-17T03:01:56;18.13;;;7.90;;
38222;SDS011;24024;51.186;6.458;2024-03-17T03:04:25;14.32;;;8.13;;
38222;SDS011;24024;51.186;6.458;2024-03-17T03:06:53;15.10;;;8.13;;
38222;SDS011;24024;51.186;6.458;2024-03-17T03:09:21;12.45;;;8.18;;
38222;SDS011;24024;51.186;6.458;2024-03-17T03:11:57;14.68;;;7.85;;
38222;SDS011;24024;51.186;6.458;2024-03-17T03:14:28;14.80;;;8.18;;
38222;SDS011;24024;51.186;6.458;2024-03-17T03:16:57;11.95;;;8.25;;
38222;SDS011;24024;51.186;6.458;2024-03-17T03:19:26;14.65;;;8.07;;
38222;SDS011;24024;51.186;6.458;2024-03-17T03:21:55;17.98;;;8.90;;
38222;SDS011;24024;51.186;6.458;2024-03-17T03:24:23;13.70;;;8.02;;
38222;SDS011;24024;51.186;6.458;2024-03-17T03:26:49;13.40;;;8.23;;
38222;SDS011;24024;51.186;6.458;2024-03-17T03:29:17;15.35;;;8.10;;
38222;SDS011;24024;51.186;6.458;2024-03-17T03:31:48;17.85;;;9.00;;
38222;SDS011;24024;51.186;6.458;2024-03-17T03:34:16;14.75;;;8.40;;
38222;SDS011;24024;51.186;6.458;2024-03-17T03:36:45;16.38;;;8.05;;
38222;SDS011;24024;51.186;6.458;2024-03-17T03:39:14;13.07;;;8.10;;
38222;SDS011;24024;51.186;6.458;2024-03-17T03:41:41;15.73;;;8.27;;
38222;SDS011;24024;51.186;6.458;2024-03-17T03:44:12;15.88;;;8.45;;
38222;SDS011;24024;51.186;6.458;2024-03-17T03:46:38;14.85;;;8.18;;
38222;SDS011;24024;51.186;6.458;2024-03-17T03:49:07;12.85;;;8.05;;
38222;SDS011;24024;51.186;6.458;2024-03-17T03:51:33;11.18;;;7.45;;
38222;SDS011;24024;51.186;6.458;2024-03-17T03:54:01;14.73;;;7.82;;
38222;SDS011;24024;51.186;6.458;2024-03-17T03:56:31;14.45;;;7.78;;
38222;SDS011;24024;51.186;6.458;2024-03-17T03:58:57;11.57;;;7.63;;
38222;SDS011;24024;51.186;6.458;2024-03-17T04:01:25;13.57;;;7.80;;
38222;SDS011;24024;51.186;6.458;2024-03-17T04:03:51;10.68;;;7.50;;
38222;SDS011;24024;51.186;6.458;2024-03-17T04:06:17;10.25;;;6.95;;
38222;SDS011;24024;51.186;6.458;2024-03-17T04:08:46;13.93;;;7.90;;
38222;SDS011;24024;51.186;6.458;2024-03-17T04:11:12;13.65;;;8.00;;
38222;SDS011;24024;51.186;6.458;2024-03-17T04:13:38;11.13;;;6.80;;
38222;SDS011;24024;51.186;6.458;2024-03-17T04:16:07;11.32;;;7.30;;
38222;SDS011;24024;51.186;6.458;2024-03-17T04:18:33;13.20;;;7.93;;
38222;SDS011;24024;51.186;6.458;2024-03-17T04:21:04;12.27;;;7.47;;
38222;SDS011;24024;51.186;6.458;2024-03-17T04:23:32;13.45;;;7.80;;
38222;SDS011;24024;51.186;6.458;2024-03-17T04:25:58;12.18;;;7.68;;
38222;SDS011;24024;51.186;6.458;2024-03-17T04:28:25;13.23;;;7.80;;
38222;SDS011;24024;51.186;6.458;2024-03-17T04:30:52;11.85;;;7.72;;
38222;SDS011;24024;51.186;6.458;2024-03-17T04:33:17;14.05;;;7.72;;
38222;SDS011;24024;51.186;6.458;2024-03-17T04:35:43;14.13;;;8.55;;
38222;SDS011;24024;51.186;6.458;2024-03-17T04:38:09;13.23;;;7.43;;
38222;SDS011;24024;51.186;6.458;2024-03-17T04:40:42;12.02;;;7.38;;
38222;SDS011;24024;51.186;6.458;2024-03-17T04:43:08;12.98;;;7.68;;
38222;SDS011;24024;51.186;6.458;2024-03-17T04:45:34;12.45;;;7.72;;
38222;SDS011;24024;51.186;6.458;2024-03-17T04:48:00;21.75;;;8.20;;
38222;SDS011;24024;51.186;6.458;2024-03-17T04:50:28;14.93;;;7.82;;
38222;SDS011;24024;51.186;6.458;2024-03-17T04:52:58;12.82;;;7.63;;
38222;SDS011;24024;51.186;6.458;2024-03-17T04:55:24;11.30;;;7.60;;
38222;SDS011;24024;51.186;6.458;2024-03-17T04:57:50;12.85;;;8.32;;
38222;SDS011;24024;51.186;6.458;2024-03-17T05:00:16;11.93;;;8.20;;
38222;SDS011;24024;51.186;6.458;2024-03-17T05:02:44;13.45;;;8.38;;
38222;SDS011;24024;51.186;6.458;2024-03-17T05:05:10;11.95;;;7.97;;
38222;SDS011;24024;51.186;6.458;2024-03-17T05:07:36;12.15;;;7.53;;
38222;SDS011;24024;51.186;6.458;2024-03-17T05:10:05;12.23;;;7.60;;
38222;SDS011;24024;51.186;6.458;2024-03-17T05:12:32;12.50;;;7.82;;
38222;SDS011;24024;51.186;6.458;2024-03-17T05:15:00;11.65;;;7.63;;
38222;SDS011;24024;51.186;6.458;2024-03-17T05:17:26;13.07;;;7.90;;
38222;SDS011;24024;51.186;6.458;2024-03-17T05:19:51;12.93;;;7.47;;
38222;SDS011;24024;51.186;6.458;2024-03-17T05:22:17;14.52;;;7.50;;
38222;SDS011;24024;51.186;6.458;2024-03-17T05:24:43;13.48;;;8.38;;
38222;SDS011;24024;51.186;6.458;2024-03-17T05:27:11;13.73;;;8.05;;
38222;SDS011;24024;51.186;6.458;2024-03-17T05:29:37;11.85;;;7.45;;
38222;SDS011;24024;51.186;6.458;2024-03-17T05:32:03;12.65;;;7.57;;
38222;SDS011;24024;51.186;6.458;2024-03-17T05:34:30;12.68;;;8.18;;
38222;SDS011;24024;51.186;6.458;2024-03-17T05:36:55;12.93;;;7.93;;
38222;SDS011;24024;51.186;6.458;2024-03-17T05:39:21;12.20;;;7.60;;
38222;SDS011;24024;51.186;6.458;2024-03-17T05:41:47;14.13;;;7.65;;
38222;SDS011;24024;51.186;6.458;2024-03-17T05:44:14;12.43;;;7.53;;
38222;SDS011;24024;51.186;6.458;2024-03-17T05:46:40;14.90;;;7.75;;
38222;SDS011;24024;51.186;6.458;2024-03-17T05:49:07;11.80;;;7.40;;
38222;SDS011;24024;51.186;6.458;2024-03-17T05:51:33;13.07;;;7.00;;
38222;SDS011;24024;51.186;6.458;2024-03-17T05:54:01;11.70;;;7.05;;
38222;SDS011;24024;51.186;6.458;2024-03-17T05:56:29;11.65;;;6.80;;
38222;SDS011;24024;51.186;6.458;2024-03-17T05:58:57;11.05;;;6.97;;
38222;SDS011;24024;51.186;6.458;2024-03-17T06:01:22;12.90;;;7.35;;
38222;SDS011;24024;51.186;6.458;2024-03-17T06:03:48;11.63;;;7.22;;
38222;SDS011;24024;51.186;6.458;2024-03-17T06:06:16;12.00;;;7.22;;
38222;SDS011;24024;51.186;6.458;2024-03-17T06:08:42;12.52;;;7.85;;
38222;SDS011;24024;51.186;6.458;2024-03-17T06:11:08;11.93;;;6.63;;
38222;SDS011;24024;51.186;6.458;2024-03-17T06:13:38;12.13;;;8.05;;
38222;SDS011;24024;51.186;6.458;2024-03-17T06:16:04;14.20;;;7.90;;
38222;SDS011;24024;51.186;6.458;2024-03-17T06:18:34;12.55;;;7.70;;
38222;SDS011;24024;51.186;6.458;2024-03-17T06:21:04;11.52;;;7.38;;
38222;SDS011;24024;51.186;6.458;2024-03-17T06:23:30;12.50;;;7.47;;
38222;SDS011;24024;51.186;6.458;2024-03-17T06:25:56;15.45;;;8.10;;
38222;SDS011;24024;51.186;6.458;2024-03-17T06:28:22;12.00;;;7.47;;
38222;SDS011;24024;51.186;6.458;2024-03-17T06:30:55;15.18;;;7.38;;
38222;SDS011;24024;51.186;6.458;2024-03-17T06:35:50;12.68;;;7.13;;
38222;SDS011;24024;51.186;6.458;2024-03-17T06:38:16;11.40;;;7.13;;
38222;SDS011;24024;51.186;6.458;2024-03-17T06:40:48;10.88;;;6.85;;
38222;SDS011;24024;51.186;6.458;2024-03-17T06:43:15;11.57;;;6.55;;
38222;SDS011;24024;51.186;6.458;2024-03-17T06:45:43;9.95;;;6.13;;
38222;SDS011;24024;51.186;6.458;2024-03-17T06:48:09;8.73;;;6.20;;
38222;SDS011;24024;51.186;6.458;2024-03-17T06:50:37;8.95;;;5.82;;
38222;SDS011;24024;51.186;6.458;2024-03-17T06:53:04;11.02;;;5.85;;
38222;SDS011;24024;51.186;6.458;2024-03-17T06:55:30;11.98;;;6.25;;
38222;SDS011;24024;51.186;6.458;2024-03-17T06:58:00;8.65;;;5.55;;
38222;SDS011;24024;51.186;6.458;2024-03-17T07:00:26;9.38;;;5.90;;
38222;SDS011;24024;51.186;6.458;2024-03-17T07:02:52;10.73;;;5.63;;
38222;SDS011;24024;51.186;6.458;2024-03-17T07:05:21;8.68;;;4.97;;
38222;SDS011;24024;51.186;6.458;2024-03-17T07:07:46;11.07;;;5.80;;
38222;SDS011;24024;51.186;6.458;2024-03-17T07:10:12;7.93;;;5.53;;
38222;SDS011;24024;51.186;6.458;2024-03-17T07:12:41;9.13;;;5.65;;
38222;SDS011;24024;51.186;6.458;2024-03-17T07:15:07;7.85;;;4.88;;
38222;SDS011;24024;51.186;6.458;2024-03-17T07:17:33;8.60;;;4.95;;
38222;SDS011;24024;51.186;6.458;2024-03-17T07:20:00;8.80;;;5.03;;
38222;SDS011;24024;51.186;6.458;2024-03-17T07:22:26;7.30;;;4.32;;
38222;SDS011;24024;51.186;6.458;2024-03-17T07:24:57;8.38;;;4.85;;
38222;SDS011;24024;51.186;6.458;2024-03-17T07:27:25;7.15;;;4.72;;
38222;SDS011;24024;51.186;6.458;2024-03-17T07:29:54;7.53;;;4.50;;
38222;SDS011;24024;51.186;6.458;2024-03-17T07:32:20;8.23;;;4.40;;
38222;SDS011;24024;51.186;6.458;2024-03-17T07:34:47;8.73;;;5.38;;
38222;SDS011;24024;51.186;6.458;2024-03-17T07:37:14;7.75;;;4.53;;
38222;SDS011;24024;51.186;6.458;2024-03-17T07:39:42;7.85;;;4.68;;
38222;SDS011;24024;51.186;6.458;2024-03-17T07:42:08;7.72;;;4.00;;
38222;SDS011;24024;51.186;6.458;2024-03-17T07:44:42;5.90;;;3.67;;
38222;SDS011;24024;51.186;6.458;2024-03-17T07:47:09;5.90;;;3.55;;
38222;SDS011;24024;51.186;6.458;2024-03-17T07:49:35;7.07;;;3.22;;
38222;SDS011;24024;51.186;6.458;2024-03-17T07:52:01;4.60;;;3.15;;
38222;SDS011;24024;51.186;6.458;2024-03-17T07:54:27;7.03;;;3.30;;
38222;SDS011;24024;51.186;6.458;2024-03-17T07:56:53;4.75;;;2.85;;
38222;SDS011;24024;51.186;6.458;2024-03-17T07:59:20;6.68;;;3.50;;
38222;SDS011;24024;51.186;6.458;2024-03-17T08:01:46;4.68;;;2.90;;
38222;SDS011;24024;51.186;6.458;2024-03-17T08:04:14;4.78;;;3.13;;
38222;SDS011;24024;51.186;6.458;2024-03-17T08:06:40;6.15;;;3.22;;
38222;SDS011;24024;51.186;6.458;2024-03-17T08:09:09;4.88;;;2.70;;
38222;SDS011;24024;51.186;6.458;2024-03-17T08:11:36;4.35;;;2.33;;
38222;SDS011;24024;51.186;6.458;2024-03-17T08:14:01;5.15;;;2.50;;
38222;SDS011;24024;51.186;6.458;2024-03-17T08:16:28;5.38;;;2.95;;
38222;SDS011;24024;51.186;6.458;2024-03-17T08:18:54;6.45;;;3.22;;
38222;SDS011;24024;51.186;6.458;2024-03-17T08:21:21;5.70;;;2.88;;
38222;SDS011;24024;51.186;6.458;2024-03-17T08:23:50;3.70;;;2.50;;
38222;SDS011;24024;51.186;6.458;2024-03-17T08:26:16;5.72;;;3.08;;
38222;SDS011;24024;51.186;6.458;2024-03-17T08:28:41;4.65;;;2.80;;
38222;SDS011;24024;51.186;6.458;2024-03-17T08:31:07;6.43;;;3.38;;
38222;SDS011;24024;51.186;6.458;2024-03-17T08:33:33;4.70;;;3.13;;
38222;SDS011;24024;51.186;6.458;2024-03-17T08:36:00;6.43;;;3.20;;
38222;SDS011;24024;51.186;6.458;2024-03-17T08:38:29;5.32;;;2.92;;
38222;SDS011;24024;51.186;6.458;2024-03-17T08:40:56;5.70;;;3.20;;
38222;SDS011;24024;51.186;6.458;2024-03-17T08:43:23;5.78;;;3.00;;
38222;SDS011;24024;51.186;6.458;2024-03-17T08:48:24;6.47;;;2.90;;
38222;SDS011;24024;51.186;6.458;2024-03-17T08:50:51;5.80;;;3.25;;
38222;SDS011;24024;51.186;6.458;2024-03-17T08:53:18;5.22;;;3.47;;
38222;SDS011;24024;51.186;6.458;2024-03-17T08:55:44;5.00;;;2.97;;
38222;SDS011;24024;51.186;6.458;2024-03-17T08:58:12;8.45;;;3.10;;
38222;SDS011;24024;51.186;6.458;2024-03-17T09:00:38;5.28;;;3.35;;
38222;SDS011;24024;51.186;6.458;2024-03-17T09:03:05;4.85;;;3.10;;
38222;SDS011;24024;51.186;6.458;2024-03-17T09:05:34;6.10;;;3.60;;
38222;SDS011;24024;51.186;6.458;2024-03-17T09:08:02;7.40;;;3.70;;
38222;SDS011;24024;51.186;6.458;2024-03-17T09:10:28;7.43;;;3.90;;
38222;SDS011;24024;51.186;6.458;2024-03-17T09:12:54;5.50;;;3.78;;
38222;SDS011;24024;51.186;6.458;2024-03-17T09:15:22;7.15;;;4.03;;
38222;SDS011;24024;51.186;6.458;2024-03-17T09:17:50;5.72;;;3.72;;
38222;SDS011;24024;51.186;6.458;2024-03-17T09:20:16;6.40;;;4.18;;
38222;SDS011;24024;51.186;6.458;2024-03-17T09:22:45;6.28;;;4.18;;
38222;SDS011;24024;51.186;6.458;2024-03-17T09:25:10;6.85;;;4.28;;
38222;SDS011;24024;51.186;6.458;2024-03-17T09:27:39;7.97;;;4.75;;
38222;SDS011;24024;51.186;6.458;2024-03-17T09:30:05;8.13;;;4.78;;
38222;SDS011;24024;51.186;6.458;2024-03-17T09:32:37;6.95;;;4.63;;
38222;SDS011;24024;51.186;6.458;2024-03-17T09:35:06;9.30;;;4.80;;
38222;SDS011;24024;51.186;6.458;2024-03-17T09:37:32;7.28;;;4.50;;
38222;SDS011;24024;51.186;6.458;2024-03-17T09:39:58;7.18;;;5.03;;
38222;SDS011;24024;51.186;6.458;2024-03-17T09:42:25;7.45;;;4.95;;
38222;SDS011;24024;51.186;6.458;2024-03-17T09:44:54;7.50;;;4.80;;
38222;SDS011;24024;51.186;6.458;2024-03-17T09:47:22;10.10;;;5.35;;
38222;SDS011;24024;51.186;6.458;2024-03-17T09:49:50;7.57;;;4.32;;
38222;SDS011;24024;51.186;6.458;2024-03-17T09:52:23;7.65;;;5.03;;
38222;SDS011;24024;51.186;6.458;2024-03-17T09:57:35;9.38;;;4.90;;
38222;SDS011;24024;51.186;6.458;2024-03-17T10:00:04;7.47;;;4.80;;
38222;SDS011;24024;51.186;6.458;2024-03-17T10:02:44;8.25;;;4.65;;
38222;SDS011;24024;51.186;6.458;2024-03-17T10:07:51;9.30;;;4.57;;
38222;SDS011;24024;51.186;6.458;2024-03-17T10:10:20;8.45;;;4.45;;
38222;SDS011;24024;51.186;6.458;2024-03-17T10:12:50;9.60;;;4.90;;
38222;SDS011;24024;51.186;6.458;2024-03-17T10:15:16;8.75;;;4.95;;
38222;SDS011;24024;51.186;6.458;2024-03-17T10:17:43;7.40;;;4.72;;
38222;SDS011;24024;51.186;6.458;2024-03-17T10:25:30;7.38;;;4.90;;
38222;SDS011;24024;51.186;6.458;2024-03-17T10:27:59;6.72;;;4.30;;
38222;SDS011;24024;51.186;6.458;2024-03-17T10:30:28;7.10;;;3.75;;
38222;SDS011;24024;51.186;6.458;2024-03-17T10:32:57;7.32;;;4.35;;
38222;SDS011;24024;51.186;6.458;2024-03-17T10:35:29;6.65;;;4.43;;
38222;SDS011;24024;51.186;6.458;2024-03-17T10:38:05;8.13;;;5.13;;
38222;SDS011;24024;51.186;6.458;2024-03-17T10:40:34;8.40;;;5.13;;
38222;SDS011;24024;51.186;6.458;2024-03-17T10:43:04;9.30;;;4.75;;
38222;SDS011;24024;51.186;6.458;2024-03-17T10:45:30;6.63;;;4.60;;
38222;SDS011;24024;51.186;6.458;2024-03-17T10:48:07;7.78;;;4.63;;
38222;SDS011;24024;51.186;6.458;2024-03-17T10:50:37;6.88;;;4.63;;
38222;SDS011;24024;51.186;6.458;2024-03-17T10:53:05;7.47;;;4.40;;
38222;SDS011;24024;51.186;6.458;2024-03-17T10:58:08;8.35;;;4.75;;
38222;SDS011;24024;51.186;6.458;2024-03-17T11:00:53;10.00;;;5.35;;
38222;SDS011;24024;51.186;6.458;2024-03-17T11:03:21;8.00;;;5.00;;
38222;SDS011;24024;51.186;6.458;2024-03-17T11:05:48;11.20;;;5.60;;
38222;SDS011;24024;51.186;6.458;2024-03-17T11:08:16;8.52;;;4.95;;
38222;SDS011;24024;51.186;6.458;2024-03-17T11:10:50;10.30;;;5.65;;
38222;SDS011;24024;51.186;6.458;2024-03-17T11:13:23;8.52;;;4.57;;
38222;SDS011;24024;51.186;6.458;2024-03-17T11:15:53;9.75;;;4.65;;
38222;SDS011;24024;51.186;6.458;2024-03-17T11:18:33;8.13;;;4.28;;
38222;SDS011;24024;51.186;6.458;2024-03-17T11:21:01;7.65;;;4.72;;
38222;SDS011;24024;51.186;6.458;2024-03-17T11:23:54;6.97;;;4.95;;
38222;SDS011;24024;51.186;6.458;2024-03-17T11:26:32;9.68;;;5.50;;
38222;SDS011;24024;51.186;6.458;2024-03-17T11:29:01;8.23;;;5.50;;
38222;SDS011;24024;51.186;6.458;2024-03-17T11:31:35;8.60;;;5.10;;
38222;SDS011;24024;51.186;6.458;2024-03-17T11:34:02;9.35;;;4.82;;
38222;SDS011;24024;51.186;6.458;2024-03-17T11:36:32;9.02;;;5.00;;
38222;SDS011;24024;51.186;6.458;2024-03-17T11:39:07;6.00;;;4.25;;
38222;SDS011;24024;51.186;6.458;2024-03-17T11:41:47;8.27;;;5.05;;
38222;SDS011;24024;51.186;6.458;2024-03-17T11:46:50;6.20;;;4.00;;
38222;SDS011;24024;51.186;6.458;2024-03-17T11:49:49;8.38;;;4.95;;
38222;SDS011;24024;51.186;6.458;2024-03-17T11:52:10;6.90;;;4.63;;
38222;SDS011;24024;51.186;6.458;2024-03-17T11:54:47;7.07;;;3.90;;
38222;SDS011;24024;51.186;6.458;2024-03-17T11:57:19;6.95;;;4.30;;
38222;SDS011;24024;51.186;6.458;2024-03-17T11:59:49;9.32;;;4.50;;
38222;SDS011;24024;51.186;6.458;2024-03-17T12:02:19;10.30;;;5.07;;
38222;SDS011;24024;51.186;6.458;2024-03-17T12:04:54;8.98;;;4.80;;
38222;SDS011;24024;51.186;6.458;2024-03-17T12:07:25;8.48;;;4.90;;
38222;SDS011;24024;51.186;6.458;2024-03-17T12:09:55;8.23;;;4.80;;
38222;SDS011;24024;51.186;6.458;2024-03-17T12:12:23;9.20;;;5.60;;
38222;SDS011;24024;51.186;6.458;2024-03-17T12:14:56;7.60;;;4.97;;
38222;SDS011;24024;51.186;6.458;2024-03-17T12:17:22;8.10;;;4.55;;
38222;SDS011;24024;51.186;6.458;2024-03-17T12:19:49;9.50;;;5.55;;
38222;SDS011;24024;51.186;6.458;2024-03-17T12:22:19;9.07;;;5.43;;
38222;SDS011;24024;51.186;6.458;2024-03-17T12:24:53;8.85;;;5.07;;
38222;SDS011;24024;51.186;6.458;2024-03-17T12:27:22;9.68;;;4.80;;
38222;SDS011;24024;51.186;6.458;2024-03-17T12:29:49;7.45;;;4.72;;
38222;SDS011;24024;51.186;6.458;2024-03-17T12:34:52;8.90;;;5.35;;
38222;SDS011;24024;51.186;6.458;2024-03-17T12:37:24;9.52;;;5.60;;
38222;SDS011;24024;51.186;6.458;2024-03-17T12:40:02;9.90;;;4.93;;
38222;SDS011;24024;51.186;6.458;2024-03-17T12:42:29;9.55;;;5.32;;
38222;SDS011;24024;51.186;6.458;2024-03-17T12:44:58;8.52;;;5.35;;
38222;SDS011;24024;51.186;6.458;2024-03-17T12:47:25;7.70;;;4.80;;
38222;SDS011;24024;51.186;6.458;2024-03-17T12:52:31;9.07;;;5.30;;
38222;SDS011;24024;51.186;6.458;2024-03-17T12:58:08;10.23;;;5.78;;
38222;SDS011;24024;51.186;6.458;2024-03-17T13:01:00;8.55;;;5.00;;
38222;SDS011;24024;51.186;6.458;2024-03-17T13:03:29;7.60;;;5.20;;
38222;SDS011;24024;51.186;6.458;2024-03-17T13:05:55;9.38;;;5.72;;
38222;SDS011;24024;51.186;6.458;2024-03-17T13:08:21;8.90;;;5.28;;
38222;SDS011;24024;51.186;6.458;2024-03-17T13:10:46;8.57;;;5.50;;
38222;SDS011;24024;51.186;6.458;2024-03-17T13:13:15;9.30;;;4.60;;
38222;SDS011;24024;51.186;6.458;2024-03-17T13:15:46;7.97;;;4.53;;
38222;SDS011;24024;51.186;6.458;2024-03-17T13:18:17;6.65;;;4.40;;
38222;SDS011;24024;51.186;6.458;2024-03-17T13:20:47;9.75;;;4.85;;
38222;SDS011;24024;51.186;6.458;2024-03-17T13:23:16;9.60;;;5.10;;
38222;SDS011;24024;51.186;6.458;2024-03-17T13:25:43;8.85;;;4.30;;
38222;SDS011;24024;51.186;6.458;2024-03-17T13:28:11;9.65;;;4.43;;
38222;SDS011;24024;51.186;6.458;2024-03-17T13:30:37;6.80;;;4.10;;
38222;SDS011;24024;51.186;6.458;2024-03-17T13:33:03;8.18;;;4.50;;
38222;SDS011;24024;51.186;6.458;2024-03-17T13:35:38;7.13;;;4.20;;
38222;SDS011;24024;51.186;6.458;2024-03-17T13:38:08;7.05;;;4.53;;
38222;SDS011;24024;51.186;6.458;2024-03-17T13:40:36;11.05;;;4.70;;
38222;SDS011;24024;51.186;6.458;2024-03-17T13:43:05;6.85;;;4.43;;
38222;SDS011;24024;51.186;6.458;2024-03-17T13:45:37;7.53;;;4.22;;
38222;SDS011;24024;51.186;6.458;2024-03-17T13:48:05;6.45;;;4.03;;
38222;SDS011;24024;51.186;6.458;2024-03-17T13:50:31;5.55;;;3.97;;
38222;SDS011;24024;51.186;6.458;2024-03-17T13:52:59;7.03;;;4.20;;
38222;SDS011;24024;51.186;6.458;2024-03-17T13:55:30;7.57;;;4.60;;
38222;SDS011;24024;51.186;6.458;2024-03-17T13:58:01;7.55;;;4.70;;
38222;SDS011;24024;51.186;6.458;2024-03-17T14:00:30;6.07;;;4.10;;
38222;SDS011;24024;51.186;6.458;2024-03-17T14:03:00;5.70;;;3.80;;
38222;SDS011;24024;51.186;6.458;2024-03-17T14:05:28;6.90;;;4.20;;
38222;SDS011;24024;51.186;6.458;2024-03-17T14:07:55;7.35;;;4.07;;
38222;SDS011;24024;51.186;6.458;2024-03-17T14:10:25;7.55;;;3.78;;
38222;SDS011;24024;51.186;6.458;2024-03-17T14:12:52;7.00;;;3.67;;
38222;SDS011;24024;51.186;6.458;2024-03-17T14:15:19;7.47;;;3.95;;
38222;SDS011;24024;51.186;6.458;2024-03-17T14:17:47;9.45;;;3.85;;
38222;SDS011;24024;51.186;6.458;2024-03-17T14:20:14;8.07;;;4.10;;
38222;SDS011;24024;51.186;6.458;2024-03-17T14:22:44;7.68;;;4.32;;
38222;SDS011;24024;51.186;6.458;2024-03-17T14:25:19;6.30;;;3.67;;
38222;SDS011;24024;51.186;6.458;2024-03-17T14:27:47;7.57;;;4.43;;
38222;SDS011;24024;51.186;6.458;2024-03-17T14:30:17;6.18;;;4.07;;
38222;SDS011;24024;51.186;6.458;2024-03-17T14:32:47;6.43;;;3.67;;
38222;SDS011;24024;51.186;6.458;2024-03-17T14:35:17;7.47;;;4.53;;
38222;SDS011;24024;51.186;6.458;2024-03-17T14:37:46;6.25;;;4.40;;
38222;SDS011;24024;51.186;6.458;2024-03-17T14:40:15;7.20;;;4.18;;
38222;SDS011;24024;51.186;6.458;2024-03-17T14:42:54;6.93;;;4.10;;
38222;SDS011;24024;51.186;6.458;2024-03-17T14:45:24;7.35;;;4.32;;
38222;SDS011;24024;51.186;6.458;2024-03-17T14:47:50;7.53;;;4.13;;
38222;SDS011;24024;51.186;6.458;2024-03-17T14:50:18;8.05;;;4.25;;
38222;SDS011;24024;51.186;6.458;2024-03-17T14:52:45;7.32;;;4.53;;
38222;SDS011;24024;51.186;6.458;2024-03-17T14:55:13;6.93;;;4.57;;
38222;SDS011;24024;51.186;6.458;2024-03-17T14:57:43;9.57;;;4.65;;
38222;SDS011;24024;51.186;6.458;2024-03-17T15:00:11;8.07;;;4.53;;
38222;SDS011;24024;51.186;6.458;2024-03-17T15:02:51;6.57;;;4.63;;
38222;SDS011;24024;51.186;6.458;2024-03-17T15:05:17;7.68;;;4.75;;
38222;SDS011;24024;51.186;6.458;2024-03-17T15:07:50;8.13;;;4.97;;
38222;SDS011;24024;51.186;6.458;2024-03-17T15:10:16;6.10;;;4.05;;
38222;SDS011;24024;51.186;6.458;2024-03-17T15:12:51;6.50;;;3.95;;
38222;SDS011;24024;51.186;6.458;2024-03-17T15:15:19;7.45;;;4.10;;
38222;SDS011;24024;51.186;6.458;2024-03-17T15:17:45;7.50;;;4.55;;